createdAt,value
2023-04-21T00:00:52.684Z,100152.75
2023-04-21T00:03:21.104Z,100162.28
2023-04-21T00:05:48.387Z,100166.31
2023-04-21T00:08:15.543Z,100161.97
2023-04-21T00:10:42.193Z,100166.31
2023-04-21T00:13:08.711Z,100155.34
2023-04-21T00:15:35.323Z,100160.38
2023-04-21T00:18:02.103Z,100151.28
2023-04-21T00:20:28.759Z,100141.88
2023-04-21T00:22:56.133Z,100154.38
2023-04-21T00:25:23.250Z,100152.75
2023-04-21T00:27:49.819Z,100153.56
2023-04-21T00:30:16.549Z,100143.47
2023-04-21T00:32:43.218Z,100151.13
2023-04-21T00:35:10.127Z,100115.03
2023-04-21T00:37:36.801Z,100139.94
2023-04-21T00:40:04.808Z,100146.44
2023-04-21T00:42:31.580Z,100151.13
2023-04-21T00:44:58.137Z,100141.78
2023-04-21T00:47:25.541Z,100129.28
2023-04-21T00:49:52.190Z,100134.00
2023-04-21T00:52:19.088Z,100133.19
2023-04-21T00:54:45.726Z,100117.69
2023-04-21T00:57:12.263Z,100128.50
2023-04-21T00:59:38.865Z,100116.00
2023-04-21T01:02:05.907Z,100128.84
2023-04-21T01:04:37.023Z,100126.91
2023-04-21T01:07:04.323Z,100106.31
2023-04-21T01:09:30.897Z,100114.31
2023-04-21T01:12:02.210Z,100120.59
2023-04-21T01:14:28.954Z,100125.28
2023-04-21T01:16:55.563Z,100117.53
2023-04-21T01:19:22.875Z,100107.97
2023-04-21T01:21:49.443Z,100116.06
2023-04-21T01:24:15.979Z,100099.88
2023-04-21T01:26:46.043Z,100108.09
2023-04-21T01:29:12.575Z,100104.41
2023-04-21T01:31:39.158Z,100108.81
2023-04-21T01:34:07.633Z,100089.84
2023-04-21T01:36:35.981Z,100096.78
2023-04-21T01:39:02.790Z,100109.25
2023-04-21T01:41:29.752Z,100074.94
2023-04-21T01:43:56.383Z,100115.22
2023-04-21T01:46:24.612Z,100118.16
2023-04-21T01:48:51.249Z,100113.81
2023-04-21T01:51:17.842Z,100106.81
2023-04-21T01:53:44.362Z,100113.81
2023-04-21T01:56:14.288Z,100115.91
2023-04-21T01:58:40.830Z,100115.09
2023-04-21T02:01:07.454Z,100107.59
2023-04-21T02:03:35.608Z,100129.94
2023-04-21T02:06:02.319Z,100129.13
2023-04-21T02:08:28.920Z,100122.03
2023-04-21T02:10:55.543Z,100128.13
2023-04-21T02:13:22.039Z,100125.94
2023-04-21T02:15:48.916Z,100125.13
2023-04-21T02:18:16.706Z,100129.28
2023-04-21T02:20:44.109Z,100130.28
2023-04-21T02:23:10.806Z,100135.78
2023-04-21T02:25:37.381Z,100124.59
2023-04-21T02:28:05.040Z,100133.84
2023-04-21T02:30:31.630Z,100129.94
2023-04-21T02:32:58.400Z,100132.38
2023-04-21T02:35:25.063Z,100134.63
2023-04-21T02:37:51.603Z,100136.72
2023-04-21T02:40:18.191Z,100139.75
2023-04-21T02:42:45.061Z,100154.81
2023-04-21T02:45:11.664Z,100143.63
2023-04-21T02:47:38.413Z,100132.78
2023-04-21T02:50:05.550Z,100146.38
2023-04-21T02:52:36.680Z,100142.84
2023-04-21T02:55:03.952Z,100138.66
2023-04-21T02:57:30.529Z,100130.41
2023-04-21T02:59:57.099Z,100134.25
2023-04-21T03:02:23.791Z,100134.91
2023-04-21T03:04:51.006Z,100138.78
2023-04-21T03:07:17.564Z,100140.53
2023-04-21T03:09:44.114Z,100129.69
2023-04-21T03:12:10.677Z,100139.91
2023-04-21T03:14:37.256Z,100128.44
2023-04-21T03:17:03.820Z,100120.69
2023-04-21T03:19:31.485Z,100120.69
2023-04-21T03:21:58.118Z,100119.06
2023-04-21T03:24:24.793Z,100112.94
2023-04-21T03:26:51.491Z,100109.06
2023-04-21T03:29:18.264Z,100111.31
2023-04-21T03:31:45.011Z,100113.25
2023-04-21T03:34:11.746Z,100090.09
2023-04-21T03:36:38.570Z,100124.06
2023-04-21T03:39:18.785Z,100102.75
2023-04-21T03:41:46.357Z,100117.16
2023-04-21T03:44:12.883Z,100116.63
2023-04-21T03:46:39.579Z,100125.19
2023-04-21T03:49:06.494Z,100115.97
2023-04-21T03:51:33.003Z,100128.44
2023-04-21T03:53:59.654Z,100110.97
2023-04-21T03:56:26.145Z,100114.41
2023-04-21T03:58:53.344Z,100094.50
2023-04-21T04:01:20.805Z,100095.13
2023-04-21T04:03:47.431Z,100110.34
2023-04-21T04:06:14.199Z,100106.63
2023-04-21T04:08:40.736Z,100110.66
2023-04-21T04:11:07.354Z,100118.06
2023-04-21T04:13:33.910Z,100108.22
2023-04-21T04:16:01.249Z,100117.28
2023-04-21T04:18:27.859Z,100110.00
2023-04-21T04:20:54.476Z,100121.16
2023-04-21T04:23:21.832Z,100123.56
2023-04-21T04:25:49.181Z,100116.47
2023-04-21T04:28:16.037Z,100092.88
2023-04-21T04:30:43.721Z,100102.09
2023-04-21T04:33:11.670Z,100084.16
2023-04-21T04:35:38.247Z,100112.59
2023-04-21T04:38:04.856Z,100111.44
2023-04-21T04:40:33.221Z,100110.97
2023-04-21T04:43:01.283Z,100103.03
2023-04-21T04:45:28.534Z,100107.56
2023-04-21T04:47:55.313Z,100099.81
2023-04-21T04:50:21.979Z,100111.44
2023-04-21T04:52:49.704Z,100118.25
2023-04-21T04:55:16.323Z,100096.75
2023-04-21T04:57:42.918Z,100098.38
2023-04-21T05:00:11.345Z,100107.72
2023-04-21T05:02:38.561Z,100109.81
2023-04-21T05:05:06.784Z,100125.34
2023-04-21T05:07:36.784Z,100130.81
2023-04-21T05:10:04.512Z,100132.78
2023-04-21T05:12:32.302Z,100129.06
2023-04-21T05:14:58.890Z,100131.34
2023-04-21T05:17:25.958Z,100135.34
2023-04-21T05:19:52.489Z,100134.56
2023-04-21T05:22:19.061Z,100130.31
2023-04-21T05:24:45.675Z,100146.16
2023-04-21T05:27:12.223Z,100136.44
2023-04-21T05:29:38.921Z,100147.81
2023-04-21T05:32:06.054Z,100155.72
2023-04-21T05:34:32.724Z,100158.78
2023-04-21T05:36:59.302Z,100164.28
2023-04-21T05:39:27.603Z,100153.78
2023-04-21T05:41:54.244Z,100155.88
2023-04-21T05:44:21.125Z,100163.00
2023-04-21T05:46:47.861Z,100167.69
2023-04-21T05:49:14.549Z,100137.75
2023-04-21T05:51:41.300Z,100169.13
2023-04-21T05:54:07.839Z,100167.19
2023-04-21T05:56:35.497Z,100164.28
2023-04-21T05:59:02.081Z,100174.13
2023-04-21T06:01:28.706Z,100166.84
2023-04-21T06:03:55.452Z,100165.91
2023-04-21T06:06:22.091Z,100172.38
2023-04-21T06:08:48.690Z,100164.59
2023-04-21T06:11:15.393Z,100183.84
2023-04-21T06:13:43.552Z,100177.06
2023-04-21T06:16:10.338Z,100179.00
2023-04-21T06:18:39.982Z,100176.28
2023-04-21T06:21:06.524Z,100169.31
2023-04-21T06:23:33.096Z,100178.09
2023-04-21T06:26:06.827Z,100178.75
2023-04-21T06:28:34.089Z,100173.63
2023-04-21T06:31:01.129Z,100180.38
2023-04-21T06:33:27.988Z,100192.28
2023-04-21T06:35:54.642Z,100196.41
2023-04-21T06:38:21.412Z,100185.31
2023-04-21T06:40:48.028Z,100176.25
2023-04-21T06:43:14.803Z,100150.78
2023-04-21T06:45:41.479Z,100172.22
2023-04-21T06:48:08.097Z,100166.53
2023-04-21T06:50:34.812Z,100165.41
2023-04-21T06:53:01.417Z,100164.28
2023-04-21T06:55:28.070Z,100164.09
2023-04-21T06:57:54.661Z,100143.03
2023-04-21T07:00:21.440Z,100161.34
2023-04-21T07:02:48.221Z,100165.72
2023-04-21T07:05:14.870Z,100161.34
2023-04-21T07:07:41.411Z,100157.50
2023-04-21T07:10:08.478Z,100154.94
2023-04-21T07:12:35.226Z,100128.69
2023-04-21T07:15:02.008Z,100149.75
2023-04-21T07:17:28.663Z,100145.13
2023-04-21T07:19:55.258Z,100153.06
2023-04-21T07:22:21.887Z,100148.09
2023-04-21T07:24:49.518Z,100155.81
2023-04-21T07:27:18.977Z,100156.44
2023-04-21T07:29:45.697Z,100155.81
2023-04-21T07:32:12.315Z,100154.84
2023-04-21T07:34:39.000Z,100161.94
2023-04-21T07:37:05.773Z,100121.00
2023-04-21T07:39:32.444Z,100150.59
2023-04-21T07:41:59.032Z,100130.72
2023-04-21T07:44:25.793Z,100102.88
2023-04-21T07:46:52.419Z,100140.44
2023-04-21T07:49:19.048Z,100138.19
2023-04-21T07:51:45.826Z,100136.25
2023-04-21T07:54:15.052Z,100127.69
2023-04-21T07:56:41.704Z,100125.63
2023-04-21T07:59:11.054Z,100124.19
2023-04-21T08:01:37.682Z,100121.75
2023-04-21T08:04:04.391Z,100133.91
2023-04-21T08:06:33.358Z,100135.00
2023-04-21T08:09:00.164Z,100120.63
2023-04-21T08:11:28.514Z,100130.31
2023-04-21T08:13:55.261Z,100129.69
2023-04-21T08:16:21.992Z,100125.00
2023-04-21T08:18:48.641Z,100122.94
2023-04-21T08:21:15.449Z,100129.56
2023-04-21T08:23:42.078Z,100122.94
2023-04-21T08:26:09.179Z,100109.38
2023-04-21T08:28:35.996Z,100126.31
2023-04-21T08:31:02.974Z,100124.38
2023-04-21T08:33:29.757Z,100127.94
2023-04-21T08:38:28.412Z,100104.22
2023-04-21T08:40:55.000Z,100099.53
2023-04-21T08:43:21.665Z,100097.13
2023-04-21T08:45:48.453Z,100098.56
2023-04-21T08:48:18.716Z,100103.75
2023-04-21T08:50:46.266Z,100091.28
2023-04-21T08:53:12.999Z,100091.97
2023-04-21T08:55:40.608Z,100095.97
2023-04-21T08:58:09.097Z,100095.19
2023-04-21T09:00:36.350Z,100065.44
2023-04-21T09:03:05.726Z,100080.19
2023-04-21T09:05:42.026Z,100082.16
2023-04-21T09:08:14.044Z,100066.47
2023-04-21T09:10:45.321Z,100062.28
2023-04-21T09:13:12.184Z,100063.41
2023-04-21T09:15:49.073Z,100054.19
2023-04-21T09:18:17.239Z,100053.22
2023-04-21T09:20:44.497Z,100064.38
2023-04-21T09:23:11.401Z,100064.22
2023-04-21T09:25:42.001Z,100046.75
2023-04-21T09:28:09.442Z,100055.97
2023-04-21T09:30:39.738Z,100043.84
2023-04-21T09:33:16.623Z,100055.16
2023-04-21T09:35:43.384Z,100051.94
2023-04-21T09:38:11.318Z,100049.00
2023-04-21T09:40:37.920Z,100032.81
2023-04-21T09:43:04.753Z,100046.13
2023-04-21T09:45:39.523Z,100045.47
2023-04-21T09:48:06.685Z,100045.00
2023-04-21T09:51:15.228Z,100048.72
2023-04-21T09:53:20.563Z,100038.84
2023-04-21T09:55:48.329Z,100031.72
2023-04-21T09:58:15.478Z,100027.88
2023-04-21T10:00:42.133Z,100039.19
2023-04-21T10:03:11.390Z,100035.16
2023-04-21T10:05:41.918Z,100031.28
2023-04-21T10:08:11.713Z,100036.91
2023-04-21T10:10:38.595Z,100029.16
2023-04-21T10:13:05.214Z,100023.84
2023-04-21T10:15:39.098Z,100021.72
2023-04-21T10:18:25.141Z,100024.47
2023-04-21T10:20:58.106Z,100001.16
2023-04-21T10:23:31.328Z,100023.50
2023-04-21T10:26:17.590Z,100024.31
2023-04-21T10:28:57.847Z,100033.00
2023-04-21T10:31:52.525Z,100034.81
2023-04-21T10:34:25.868Z,100029.16
2023-04-21T10:36:55.614Z,100019.91
2023-04-21T10:39:42.318Z,100012.16
2023-04-21T10:42:24.519Z,100016.81
2023-04-21T10:44:57.702Z,100006.28
2023-04-21T10:47:27.978Z,99993.34
2023-04-21T10:49:59.120Z,99992.34
2023-04-21T10:52:33.418Z,99981.84
2023-04-21T10:54:59.924Z,99986.97
2023-04-21T10:57:26.649Z,99977.78
2023-04-21T10:59:53.287Z,99988.41
2023-04-21T11:02:20.623Z,99982.25
2023-04-21T11:04:51.290Z,99978.19
2023-04-21T11:07:23.167Z,99969.88
2023-04-21T11:09:57.731Z,99972.47
2023-04-21T11:12:30.186Z,99967.13
2023-04-21T11:14:57.034Z,99968.56
2023-04-21T11:17:24.495Z,99964.34
2023-04-21T11:19:55.363Z,99960.94
2023-04-21T11:22:23.582Z,99950.22
2023-04-21T11:24:52.072Z,99949.28
2023-04-21T11:27:19.301Z,99931.84
2023-04-21T11:29:48.725Z,99946.41
2023-04-21T11:32:15.777Z,99937.66
2023-04-21T11:34:42.812Z,99940.72
2023-04-21T11:37:10.279Z,99940.41
2023-04-21T11:39:40.255Z,99932.44
2023-04-21T11:42:06.908Z,99929.00
2023-04-21T11:44:43.370Z,99922.84
2023-04-21T11:47:17.238Z,99920.72
2023-04-21T11:49:48.077Z,99920.88
2023-04-21T11:52:28.179Z,99932.53
2023-04-21T11:54:59.828Z,99930.38
2023-04-21T11:57:30.401Z,99935.06
2023-04-21T12:00:00.717Z,99937.97
2023-04-21T12:02:28.972Z,99927.91
2023-04-21T12:05:09.289Z,99933.06
2023-04-21T12:07:44.062Z,99927.38
2023-04-21T12:10:12.090Z,99927.38
2023-04-21T12:12:39.290Z,99934.97
2023-04-21T12:15:09.980Z,99931.19
2023-04-21T12:17:46.688Z,99924.06
2023-04-21T12:20:16.047Z,99917.78
2023-04-21T12:22:42.693Z,99922.25
2023-04-21T12:25:09.556Z,99895.66
2023-04-21T12:27:36.232Z,99932.25
2023-04-21T12:30:06.576Z,99897.78
2023-04-21T12:32:33.159Z,99898.66
2023-04-21T12:35:00.638Z,99906.59
2023-04-21T12:37:27.366Z,99902.69
2023-04-21T12:39:53.989Z,99910.31
2023-04-21T12:42:20.674Z,99913.88
2023-04-21T12:44:47.330Z,99913.88
2023-04-21T12:47:13.997Z,99916.28
2023-04-21T12:49:42.314Z,99903.66
2023-04-21T12:52:09.033Z,99901.09
2023-04-21T12:54:35.730Z,99901.88
2023-04-21T12:57:02.519Z,99902.97
2023-04-21T12:59:29.422Z,99911.72
2023-04-21T13:01:56.345Z,99903.91
2023-04-21T13:04:23.086Z,99899.06
2023-04-21T13:06:50.013Z,99889.19
2023-04-21T13:09:17.062Z,99900.03
2023-04-21T13:11:43.790Z,99902.44
2023-04-21T13:14:10.913Z,99904.84
2023-04-21T13:16:37.567Z,99880.59
2023-04-21T13:19:07.063Z,99894.72
2023-04-21T13:21:33.731Z,99884.75
2023-04-21T13:24:02.216Z,99889.00
2023-04-21T13:26:28.828Z,99885.63
2023-04-21T13:28:55.535Z,99887.59
2023-04-21T13:31:22.224Z,99880.94
2023-04-21T13:33:48.944Z,99889.69
2023-04-21T13:36:15.779Z,99880.25
2023-04-21T13:38:42.416Z,99878.91
2023-04-21T13:41:09.026Z,99873.38
2023-04-21T13:43:35.771Z,99868.31
2023-04-21T13:46:02.516Z,99863.03
2023-04-21T13:48:29.817Z,99869.97
2023-04-21T13:50:56.574Z,99868.13
2023-04-21T13:53:23.186Z,99861.47
2023-04-21T13:55:49.877Z,99860.66
2023-04-21T13:58:19.861Z,99850.09
2023-04-21T14:00:46.604Z,99846.75
2023-04-21T14:03:14.131Z,99841.47
2023-04-21T14:05:41.455Z,99832.06
2023-04-21T14:08:08.440Z,99825.41
2023-04-21T14:10:35.264Z,99819.09
2023-04-21T14:13:02.012Z,99809.09
2023-04-21T14:15:28.668Z,99803.13
2023-04-21T14:17:56.509Z,99792.66
2023-04-21T14:20:23.459Z,99783.38
2023-04-21T14:22:53.050Z,99791.19
2023-04-21T14:25:19.752Z,99787.28
2023-04-21T14:27:46.336Z,99786.84
2023-04-21T14:30:13.916Z,99786.47
2023-04-21T14:32:45.645Z,99776.13
2023-04-21T14:35:12.695Z,99785.31
2023-04-21T14:37:39.535Z,99771.75
2023-04-21T14:40:08.070Z,99773.69
2023-04-21T14:42:34.663Z,99771.63
2023-04-21T14:45:01.388Z,99751.63
2023-04-21T14:47:28.572Z,99757.41
2023-04-21T14:49:56.036Z,99756.47
2023-04-21T14:52:25.721Z,99758.09
2023-04-21T14:54:52.456Z,99754.72
2023-04-21T14:57:21.079Z,99747.59
2023-04-21T14:59:51.559Z,99755.78
2023-04-21T15:02:22.117Z,99749.81
2023-04-21T15:04:49.304Z,99729.31
2023-04-21T15:07:19.905Z,99754.28
2023-04-21T15:09:51.004Z,99755.56
2023-04-21T15:12:17.644Z,99744.50
2023-04-21T15:14:44.393Z,99755.66
2023-04-21T15:17:11.141Z,99759.00
2023-04-21T15:19:37.975Z,99759.94
2023-04-21T15:22:05.107Z,99759.13
2023-04-21T15:24:31.674Z,99754.97
2023-04-21T15:26:58.390Z,99724.97
2023-04-21T15:29:25.274Z,99754.28
2023-04-21T15:31:51.863Z,99754.66
2023-04-21T15:34:18.417Z,99743.03
2023-04-21T15:36:47.661Z,99752.56
2023-04-21T15:39:14.331Z,99745.28
2023-04-21T15:41:41.508Z,99753.25
2023-04-21T15:44:10.842Z,99739.41
2023-04-21T15:46:37.547Z,99749.75
2023-04-21T15:49:04.228Z,99754.34
2023-04-21T15:51:34.555Z,99737.78
2023-04-21T15:54:01.232Z,99744.91
2023-04-21T15:56:27.956Z,99758.00
2023-04-21T15:58:54.577Z,99763.53
2023-04-21T16:01:24.544Z,99763.72
2023-04-21T16:03:51.993Z,99816.06
2023-04-21T16:06:21.929Z,99836.63
2023-04-21T16:08:51.340Z,99819.97
2023-04-21T16:11:18.006Z,99823.38
2023-04-21T16:13:44.603Z,99820.63
2023-04-21T16:16:11.428Z,99822.91
2023-04-21T16:18:38.326Z,99834.41
2023-04-21T16:21:05.084Z,99815.94
2023-04-21T16:23:31.870Z,99792.16
2023-04-21T16:25:58.734Z,99777.00
2023-04-21T16:28:25.428Z,99786.66
2023-04-21T16:30:52.958Z,99778.41
2023-04-21T16:33:19.735Z,99739.78
2023-04-21T16:35:49.345Z,99744.88
2023-04-21T16:38:16.115Z,99698.53
2023-04-21T16:40:42.728Z,99688.19
2023-04-21T16:43:09.360Z,99697.59
2023-04-21T16:45:36.086Z,99730.47
2023-04-21T16:48:02.813Z,99760.47
2023-04-21T16:50:29.525Z,99729.03
2023-04-21T16:52:56.296Z,99694.78
2023-04-21T16:55:22.936Z,99721.44
2023-04-21T16:57:49.547Z,99716.41
2023-04-21T17:00:16.603Z,99720.16
2023-04-21T17:02:43.415Z,99724.06
2023-04-21T17:05:11.996Z,99721.00
2023-04-21T17:07:39.566Z,99728.09
2023-04-21T17:10:07.368Z,99723.94
2023-04-21T17:12:34.078Z,99724.88
2023-04-21T17:15:00.784Z,99730.72
2023-04-21T17:17:27.383Z,99728.78
2023-04-21T17:19:54.776Z,99729.47
2023-04-21T17:22:24.143Z,99731.72
2023-04-21T17:24:53.540Z,99734.03
2023-04-21T17:27:21.332Z,99736.97
2023-04-21T17:29:48.195Z,99722.97
2023-04-21T17:32:14.919Z,99733.97
2023-04-21T17:34:41.697Z,99749.81
2023-04-21T17:37:08.929Z,99754.88
2023-04-21T17:39:35.553Z,99711.34
2023-04-21T17:42:02.628Z,99745.78
2023-04-21T17:44:29.412Z,99743.38
2023-04-21T17:46:56.583Z,99743.69
2023-04-21T17:49:24.782Z,99733.50
2023-04-21T17:51:51.633Z,99720.41
2023-04-21T17:54:18.208Z,99701.75
2023-04-21T17:56:46.312Z,99733.50
2023-04-21T17:59:13.402Z,99733.50
2023-04-21T18:01:41.135Z,99740.47
2023-04-21T18:04:11.094Z,99732.09
2023-04-21T18:06:39.695Z,99751.13
2023-04-21T18:09:07.355Z,99771.75
2023-04-21T18:11:34.538Z,99788.84
2023-04-21T18:14:01.840Z,99799.84
2023-04-21T18:16:32.057Z,99791.91
2023-04-21T18:18:59.197Z,99787.91
2023-04-21T18:21:27.390Z,99776.41
2023-04-21T18:23:54.221Z,99775.25
2023-04-21T18:26:23.539Z,99774.78
2023-04-21T18:28:52.525Z,99769.28
2023-04-21T18:31:22.064Z,99769.59
2023-04-21T18:33:50.658Z,99774.78
2023-04-21T18:36:18.206Z,99773.50
2023-04-21T18:38:45.204Z,99773.84
2023-04-21T18:41:11.920Z,99790.97
2023-04-21T18:43:38.594Z,99793.72
2023-04-21T18:46:05.619Z,99805.94
2023-04-21T18:48:32.256Z,99801.94
2023-04-21T18:51:01.540Z,99801.81
2023-04-21T18:53:28.315Z,99798.53
2023-04-21T18:55:55.050Z,99799.13
2023-04-21T18:58:21.731Z,99815.63
2023-04-21T19:00:48.654Z,99810.13
2023-04-21T19:03:15.576Z,99818.34
2023-04-21T19:05:42.379Z,99813.50
2023-04-21T19:08:09.788Z,99813.34
2023-04-21T19:10:40.772Z,99800.44
2023-04-21T19:13:07.403Z,99809.59
2023-04-21T19:15:35.017Z,99812.16
2023-04-21T19:18:01.778Z,99808.78
2023-04-21T19:20:29.373Z,99818.84
2023-04-21T19:22:56.083Z,99819.66
2023-04-21T19:25:22.826Z,99804.63
2023-04-21T19:27:49.497Z,99822.06
2023-04-21T19:30:19.357Z,99819.13
2023-04-21T19:32:46.114Z,99815.38
2023-04-21T19:35:13.315Z,99824.81
2023-04-21T19:37:40.004Z,99827.69
2023-04-21T19:40:08.101Z,99814.28
2023-04-21T19:42:34.776Z,99822.91
2023-04-21T19:45:01.586Z,99820.94
2023-04-21T19:47:28.385Z,99817.09
2023-04-21T19:49:55.198Z,99820.47
2023-04-21T19:52:21.863Z,99823.88
2023-04-21T19:54:48.546Z,99820.38
2023-04-21T19:57:15.955Z,99828.94
2023-04-21T19:59:42.717Z,99833.06
2023-04-21T20:02:09.609Z,99832.13
2023-04-21T20:04:37.494Z,99821.78
2023-04-21T20:07:04.314Z,99824.34
2023-04-21T20:09:31.179Z,99818.19
2023-04-21T20:11:57.874Z,99797.66
2023-04-21T20:14:24.637Z,99803.09
2023-04-21T20:16:51.632Z,99813.63
2023-04-21T20:19:18.803Z,99815.22
2023-04-21T20:21:45.583Z,99808.13
2023-04-21T20:24:15.534Z,99801.28
2023-04-21T20:26:42.207Z,99817.81
2023-04-21T20:29:09.229Z,99808.59
2023-04-21T20:31:36.394Z,99811.38
2023-04-21T20:34:03.054Z,99811.38
2023-04-21T20:36:29.699Z,99813.16
2023-04-21T20:38:57.212Z,99814.28
2023-04-21T20:41:24.229Z,99811.88
2023-04-21T20:43:51.014Z,99809.47
2023-04-21T20:46:17.890Z,99814.97
2023-04-21T20:48:44.541Z,99814.97
2023-04-21T20:51:11.226Z,99820.00
2023-04-21T20:53:37.862Z,99808.25
2023-04-21T20:56:07.502Z,99817.09
2023-04-21T20:58:36.065Z,99820.53
2023-04-21T21:01:02.994Z,99818.44
2023-04-21T21:03:30.854Z,99812.94
2023-04-21T21:05:57.818Z,99813.09
2023-04-21T21:08:24.554Z,99813.88
2023-04-21T21:10:51.212Z,99808.44
2023-04-21T21:13:17.988Z,99806.34
2023-04-21T21:15:44.572Z,99813.91
2023-04-21T21:18:11.540Z,99809.44
2023-04-21T21:20:38.259Z,99814.28
2023-04-21T21:23:05.027Z,99824.94
2023-04-21T21:25:31.752Z,99827.53
2023-04-21T21:27:58.420Z,99794.13
2023-04-21T21:30:25.092Z,99835.47
2023-04-21T21:32:53.680Z,99853.72
2023-04-21T21:35:21.056Z,99855.19
2023-04-21T21:37:47.679Z,99851.47
2023-04-21T21:40:14.334Z,99837.94
2023-04-21T21:42:40.935Z,99846.47
2023-04-21T21:45:08.058Z,99845.50
2023-04-21T21:47:37.324Z,99843.91
2023-04-21T21:50:06.677Z,99839.06
2023-04-21T21:52:33.369Z,99824.22
2023-04-21T21:54:59.956Z,99844.69
2023-04-21T21:57:26.593Z,99842.28
2023-04-21T21:59:53.288Z,99839.84
2023-04-21T22:02:19.949Z,99836.50
2023-04-21T22:04:46.985Z,99837.44
2023-04-21T22:07:16.922Z,99839.06
2023-04-21T22:09:43.535Z,99837.44
2023-04-21T22:12:10.142Z,99833.56
2023-04-21T22:14:36.745Z,99836.66
2023-04-21T22:17:03.369Z,99829.88
2023-04-21T22:19:30.958Z,99832.63
2023-04-21T22:21:59.980Z,99826.31
2023-04-21T22:24:26.691Z,99834.41
2023-04-21T22:26:53.330Z,99829.06
2023-04-21T22:29:19.918Z,99839.44
2023-04-21T22:31:46.759Z,99839.91
2023-04-21T22:34:15.061Z,99839.44
2023-04-21T22:36:41.740Z,99852.06
2023-04-21T22:39:08.295Z,99846.56
2023-04-21T22:41:34.846Z,99827.63
2023-04-21T22:44:01.388Z,99809.44
2023-04-21T22:46:31.971Z,99817.13
2023-04-21T22:48:59.517Z,99816.47
2023-04-21T22:51:27.815Z,99816.97
2023-04-21T22:53:54.384Z,99816.81
2023-04-21T22:56:21.110Z,99804.22
2023-04-21T22:58:47.755Z,99812.75
2023-04-21T23:01:14.361Z,99806.63
2023-04-21T23:03:41.438Z,99826.03
2023-04-21T23:06:08.089Z,99821.66
2023-04-21T23:08:34.645Z,99825.56
2023-04-21T23:11:01.899Z,99820.38
2023-04-21T23:13:28.444Z,99809.59
2023-04-21T23:15:55.017Z,99816.81
2023-04-21T23:18:21.636Z,99811.81
2023-04-21T23:20:48.311Z,99814.09
2023-04-21T23:23:14.868Z,99812.94
2023-04-21T23:25:41.364Z,99809.72
2023-04-21T23:28:08.006Z,99799.38
2023-04-21T23:30:34.682Z,99809.06
2023-04-21T23:33:01.437Z,99810.19
2023-04-21T23:35:28.097Z,99808.94
2023-04-21T23:37:54.668Z,99806.97
2023-04-21T23:40:21.395Z,99801.66
2023-04-21T23:42:48.316Z,99802.13
2023-04-21T23:45:15.108Z,99785.16
2023-04-21T23:47:41.900Z,99793.22
2023-04-21T23:50:08.800Z,99784.50
2023-04-21T23:52:35.460Z,99773.50
2023-04-21T23:55:02.111Z,99775.78
2023-04-21T23:57:28.722Z,99762.22
2023-04-21T23:59:55.421Z,99783.56
